Time;durP1;ratioP1;P1;durP2;ratioP2;P2;SDS_P1;SDS_P2;PMS_P1;PMS_P2;Temp;Humidity;BMP_temperature;BMP_pressure;BME280_temperature;BME280_humidity;BME280_pressure;Samples;Min_cycle;Max_cycle;Signal;HPM_P1;HPM_P2
2021/11/22 00:02:14;;;;;;;21.15;11.98;;;6.60;99.90;;;;;;5077634;28;20379;-53
2021/11/22 00:04:39;;;;;;;20.33;11.25;;;6.50;99.90;;;;;;5077733;28;20411;-52
2021/11/22 00:07:05;;;;;;;20.92;12.60;;;6.50;99.90;;;;;;5077039;28;20919;-52
2021/11/22 00:09:33;;;;;;;18.87;11.00;;;6.70;99.90;;;;;;5083883;28;20875;-52
2021/11/22 00:11:59;;;;;;;20.88;11.25;;;6.60;99.90;;;;;;5081049;28;20899;-52
2021/11/22 00:14:25;;;;;;;20.50;11.25;;;6.60;99.90;;;;;;5079768;28;20372;-52
2021/11/22 00:16:50;;;;;;;18.40;11.32;;;6.60;99.90;;;;;;5076191;28;20376;-53
2021/11/22 00:19:16;;;;;;;21.37;11.40;;;6.60;99.90;;;;;;5059359;28;20394;-51
2021/11/22 00:21:42;;;;;;;19.50;11.30;;;6.70;99.90;;;;;;5078091;28;20730;-52
2021/11/22 00:24:07;;;;;;;21.63;12.40;;;6.70;99.90;;;;;;5075792;28;20908;-52
2021/11/22 00:26:33;;;;;;;19.05;11.57;;;6.60;99.90;;;;;;5049168;28;20909;-52
2021/11/22 00:28:59;;;;;;;24.42;12.00;;;6.60;99.90;;;;;;5078967;28;20384;-52
2021/11/22 00:31:25;;;;;;;20.23;11.97;;;6.50;99.90;;;;;;5079969;28;20386;-52
2021/11/22 00:33:52;;;;;;;19.77;11.57;;;6.50;99.90;;;;;;5076435;28;20376;-54
2021/11/22 00:36:18;;;;;;;19.70;11.80;;;6.40;99.90;;;;;;5077993;28;20469;-52
2021/11/22 00:38:44;;;;;;;20.98;11.50;;;6.40;99.90;;;;;;5079113;28;20406;-52
2021/11/22 00:41:09;;;;;;;22.60;12.30;;;6.60;99.90;;;;;;5076177;28;20399;-52
2021/11/22 00:43:35;;;;;;;20.33;12.07;;;6.60;99.90;;;;;;5067660;28;20380;-52
2021/11/22 00:46:01;;;;;;;21.87;12.30;;;6.60;99.90;;;;;;5067385;28;20857;-52
2021/11/22 00:48:27;;;;;;;19.65;11.88;;;6.60;99.90;;;;;;5068515;28;20422;-52
2021/11/22 00:50:54;;;;;;;20.60;11.73;;;6.70;99.90;;;;;;5068317;28;20416;-54
2021/11/22 00:53:21;;;;;;;21.88;12.18;;;6.80;99.90;;;;;;5069218;28;20387;-52
2021/11/22 00:55:47;;;;;;;21.42;13.05;;;6.80;99.90;;;;;;5050636;28;20779;-52
2021/11/22 00:58:13;;;;;;;22.38;11.93;;;6.80;99.90;;;;;;5067954;28;20376;-53
2021/11/22 01:00:39;;;;;;;22.08;13.07;;;6.70;99.90;;;;;;5068607;28;20463;-52
2021/11/22 01:03:05;;;;;;;20.70;12.00;;;6.70;99.90;;;;;;5068094;28;20395;-52
2021/11/22 01:05:31;;;;;;;22.13;11.93;;;6.80;99.90;;;;;;5068689;28;20854;-52
2021/11/22 01:07:57;;;;;;;21.52;12.88;;;6.80;99.90;;;;;;5068164;28;20845;-52
2021/11/22 01:10:23;;;;;;;21.67;12.73;;;6.80;99.90;;;;;;5068238;28;20406;-52
2021/11/22 01:12:51;;;;;;;22.90;12.13;;;6.60;99.90;;;;;;5070383;28;20423;-52
2021/11/22 01:15:21;;;;;;;21.10;12.27;;;6.60;99.90;;;;;;5071457;28;20392;-54
2021/11/22 01:17:49;;;;;;;21.27;12.35;;;6.60;99.90;;;;;;5053941;28;20396;-52
2021/11/22 01:20:17;;;;;;;22.52;12.20;;;6.60;99.90;;;;;;5071274;28;20597;-52
2021/11/22 01:22:43;;;;;;;20.80;12.25;;;6.50;99.90;;;;;;5072813;28;20375;-52
2021/11/22 01:25:11;;;;;;;22.88;12.32;;;6.40;99.90;;;;;;5071992;28;20403;-53
2021/11/22 01:27:37;;;;;;;20.70;12.30;;;6.70;99.90;;;;;;5072588;28;20395;-52
2021/11/22 01:30:11;;;;;;;20.50;12.15;;;6.60;99.90;;;;;;5072096;28;20402;-52
2021/11/22 01:32:37;;;;;;;22.30;12.00;;;6.60;99.90;;;;;;5054454;28;20449;-53
2021/11/22 01:35:03;;;;;;;24.70;11.80;;;6.60;99.90;;;;;;5071526;28;20383;-53
2021/11/22 01:37:29;;;;;;;20.58;11.40;;;6.70;99.90;;;;;;5072033;28;20910;-53
2021/11/22 01:39:55;;;;;;;21.93;13.10;;;6.60;99.90;;;;;;5071794;28;20406;-54
2021/11/22 01:42:20;;;;;;;26.90;13.35;;;6.80;99.90;;;;;;5054084;28;20429;-56
2021/11/22 01:44:47;;;;;;;23.03;13.20;;;6.80;99.90;;;;;;5062786;28;20811;-53
2021/11/22 01:47:12;;;;;;;22.48;13.40;;;6.80;99.90;;;;;;5063388;28;20423;-52
2021/11/22 01:49:38;;;;;;;22.37;13.30;;;6.80;99.90;;;;;;5051984;28;20424;-52
2021/11/22 01:52:04;;;;;;;25.05;13.00;;;6.70;99.90;;;;;;5051165;28;20477;-52
2021/11/22 01:54:30;;;;;;;25.02;13.57;;;6.60;99.90;;;;;;5052166;28;20484;-52
2021/11/22 01:56:58;;;;;;;24.90;13.30;;;6.50;99.90;;;;;;5051638;28;20839;-54
2021/11/22 01:59:24;;;;;;;28.13;13.80;;;6.50;99.90;;;;;;5066382;28;20397;-52
2021/11/22 02:01:50;;;;;;;23.90;13.68;;;6.60;99.90;;;;;;5056447;28;20909;-52
2021/11/22 02:04:16;;;;;;;24.45;14.02;;;6.60;99.90;;;;;;5053224;28;20471;-52
2021/11/22 02:06:42;;;;;;;25.23;14.40;;;6.60;99.90;;;;;;5071562;28;20753;-52
2021/11/22 02:09:08;;;;;;;26.60;14.70;;;6.50;99.90;;;;;;5070875;28;20889;-52
2021/11/22 02:11:35;;;;;;;27.00;14.40;;;6.60;99.90;;;;;;5078350;28;20418;-52
2021/11/22 02:14:01;;;;;;;28.45;15.25;;;6.40;99.90;;;;;;5090978;28;20382;-53
2021/11/22 02:16:27;;;;;;;28.60;15.40;;;6.40;99.90;;;;;;5091686;28;20378;-52
2021/11/22 02:18:55;;;;;;;30.35;15.77;;;6.50;99.90;;;;;;5091847;28;20542;-52
2021/11/22 02:21:21;;;;;;;27.38;15.70;;;6.50;99.90;;;;;;5073453;28;20386;-52
2021/11/22 02:23:47;;;;;;;32.08;15.30;;;6.40;99.90;;;;;;5090312;28;20448;-52
2021/11/22 02:26:13;;;;;;;33.33;16.90;;;6.40;99.90;;;;;;5090635;28;20892;-52
2021/11/22 02:28:39;;;;;;;32.38;17.25;;;6.30;99.90;;;;;;5091361;28;20884;-52
2021/11/22 02:31:05;;;;;;;34.67;16.83;;;6.30;99.90;;;;;;5090524;28;20389;-53
2021/11/22 02:33:31;;;;;;;32.13;16.20;;;6.30;99.90;;;;;;5091514;28;20387;-52
2021/11/22 02:35:59;;;;;;;30.47;16.50;;;6.20;99.90;;;;;;5091312;28;20390;-54
2021/11/22 02:38:36;;;;;;;35.10;17.90;;;6.10;99.90;;;;;;5091074;28;20382;-53
2021/11/22 02:41:03;;;;;;;34.13;17.58;;;6.10;99.90;;;;;;5090540;28;20390;-53
2021/11/22 02:43:30;;;;;;;34.30;17.55;;;6.20;99.90;;;;;;5073134;28;20389;-53
2021/11/22 02:45:56;;;;;;;31.27;15.80;;;6.30;99.90;;;;;;5091170;28;20402;-53
2021/11/22 02:48:22;;;;;;;31.30;15.90;;;6.30;99.90;;;;;;5090605;28;20400;-53
2021/11/22 02:50:48;;;;;;;32.30;17.05;;;6.40;99.90;;;;;;5091451;28;20378;-53
2021/11/22 02:53:14;;;;;;;35.35;16.70;;;6.40;99.90;;;;;;5090400;28;20896;-52
2021/11/22 02:55:40;;;;;;;36.37;17.87;;;6.40;99.90;;;;;;5084849;28;20454;-53
2021/11/22 02:58:06;;;;;;;34.03;16.83;;;6.40;99.90;;;;;;5072053;28;20390;-53
2021/11/22 03:00:35;;;;;;;34.53;18.10;;;6.50;99.90;;;;;;5091051;28;20457;-53
2021/11/22 03:03:01;;;;;;;37.43;17.03;;;6.50;99.90;;;;;;5090631;28;20418;-54
2021/11/22 03:05:26;;;;;;;36.50;18.35;;;6.40;99.90;;;;;;5090586;28;20834;-53
2021/11/22 03:07:56;;;;;;;34.45;17.38;;;6.40;99.90;;;;;;5090864;28;20443;-52
2021/11/22 03:10:25;;;;;;;34.28;17.00;;;6.50;99.90;;;;;;5089791;28;20396;-53
2021/11/22 03:12:52;;;;;;;34.45;17.80;;;6.50;99.90;;;;;;5090307;28;20398;-53
2021/11/22 03:15:21;;;;;;;38.13;19.50;;;6.60;99.90;;;;;;5090032;28;20382;-53
2021/11/22 03:17:48;;;;;;;39.42;18.13;;;6.60;99.90;;;;;;5090766;28;20416;-53
2021/11/22 03:20:17;;;;;;;35.90;18.13;;;6.50;99.90;;;;;;5089905;28;20405;-53
2021/11/22 03:22:44;;;;;;;37.47;19.10;;;6.60;99.90;;;;;;5090424;28;20420;-53
2021/11/22 03:25:11;;;;;;;35.85;18.30;;;6.70;99.90;;;;;;5090294;28;20406;-53
2021/11/22 03:27:39;;;;;;;39.88;19.40;;;6.70;99.90;;;;;;5086183;28;20931;-53
2021/11/22 03:30:06;;;;;;;36.90;17.80;;;6.70;99.90;;;;;;5089618;28;20413;-53
2021/11/22 03:32:31;;;;;;;35.58;18.45;;;6.40;99.90;;;;;;5090286;28;20382;-53
2021/11/22 03:34:58;;;;;;;41.63;18.70;;;6.40;99.90;;;;;;5071157;28;20442;-53
2021/11/22 03:37:24;;;;;;;38.40;19.20;;;6.50;99.90;;;;;;5088762;28;20382;-53
2021/11/22 03:39:52;;;;;;;37.53;18.00;;;6.50;99.90;;;;;;5061859;28;20388;-53
2021/11/22 03:42:19;;;;;;;41.95;19.35;;;6.50;99.90;;;;;;5068778;28;20392;-53
2021/11/22 03:44:45;;;;;;;38.07;18.80;;;6.50;99.90;;;;;;5069910;28;20444;-53
2021/11/22 03:47:11;;;;;;;37.75;18.92;;;6.50;99.90;;;;;;5051367;28;20392;-53
2021/11/22 03:49:37;;;;;;;42.30;19.17;;;6.60;99.90;;;;;;5069458;28;20376;-53
2021/11/22 03:52:04;;;;;;;38.83;18.50;;;6.50;99.90;;;;;;5069232;28;20452;-55
2021/11/22 03:54:30;;;;;;;35.50;17.42;;;6.50;99.90;;;;;;5070264;28;20376;-53
2021/11/22 03:56:56;;;;;;;36.43;17.43;;;6.40;99.90;;;;;;5051707;28;20383;-53
2021/11/22 03:59:22;;;;;;;36.70;18.95;;;6.50;99.90;;;;;;5068700;28;20466;-53
2021/11/22 04:01:48;;;;;;;37.65;17.42;;;6.60;99.90;;;;;;5069415;28;20386;-53
2021/11/22 04:04:13;;;;;;;39.05;18.08;;;6.60;99.90;;;;;;5068880;28;20380;-53
2021/11/22 04:06:39;;;;;;;34.63;17.33;;;6.50;99.90;;;;;;5069240;28;20396;-53
2021/11/22 04:09:05;;;;;;;32.67;17.38;;;6.60;99.90;;;;;;5068802;28;20380;-54
2021/11/22 04:11:32;;;;;;;33.83;17.00;;;6.50;99.90;;;;;;5069000;28;20416;-53
2021/11/22 04:13:58;;;;;;;36.47;17.08;;;6.50;99.90;;;;;;5069320;28;20383;-53
2021/11/22 04:16:24;;;;;;;34.40;16.60;;;6.50;99.90;;;;;;5068613;28;20384;-53
2021/11/22 04:18:50;;;;;;;33.78;16.02;;;6.40;99.90;;;;;;5069355;28;20460;-53
2021/11/22 04:21:19;;;;;;;30.40;15.52;;;6.50;99.90;;;;;;5050487;28;20383;-53
2021/11/22 04:23:45;;;;;;;35.80;16.65;;;6.40;99.90;;;;;;5069439;28;20380;-53
2021/11/22 04:26:12;;;;;;;32.58;16.38;;;6.30;99.90;;;;;;5068296;28;20407;-53
2021/11/22 04:28:39;;;;;;;32.75;15.57;;;6.40;99.90;;;;;;5069178;28;20952;-53
2021/11/22 04:31:05;;;;;;;34.92;16.40;;;6.50;99.90;;;;;;5070925;28;20452;-54
2021/11/22 04:33:31;;;;;;;30.25;15.07;;;6.60;99.90;;;;;;5068878;28;20374;-53
2021/11/22 04:35:57;;;;;;;37.83;16.88;;;6.70;99.90;;;;;;5068848;28;20396;-53
2021/11/22 04:38:23;;;;;;;37.43;17.60;;;6.70;99.90;;;;;;5068404;28;20376;-54
2021/11/22 04:40:49;;;;;;;34.30;16.20;;;6.60;99.90;;;;;;5053042;28;20398;-53
2021/11/22 04:43:14;;;;;;;31.67;15.90;;;6.60;99.90;;;;;;5068408;28;20834;-52
2021/11/22 04:45:40;;;;;;;30.33;16.00;;;6.60;99.90;;;;;;5068940;28;20392;-53
2021/11/22 04:48:06;;;;;;;31.55;15.40;;;6.70;99.90;;;;;;5068316;28;20877;-55
2021/11/22 04:50:33;;;;;;;30.65;14.50;;;6.70;99.90;;;;;;5057457;28;20883;-53
2021/11/22 04:53:01;;;;;;;28.42;13.68;;;6.70;99.90;;;;;;5089081;28;20488;-53
2021/11/22 04:55:27;;;;;;;33.22;15.52;;;6.70;99.90;;;;;;5051089;28;20649;-53
2021/11/22 04:57:54;;;;;;;33.03;15.68;;;6.70;99.90;;;;;;5079069;28;20378;-53
2021/11/22 05:00:23;;;;;;;35.55;16.90;;;6.50;99.90;;;;;;5078868;28;20453;-53
2021/11/22 05:02:49;;;;;;;30.75;15.20;;;6.70;99.90;;;;;;5071328;28;20383;-53
2021/11/22 05:05:16;;;;;;;33.38;16.25;;;6.60;99.90;;;;;;5067814;28;20406;-53
2021/11/22 05:07:43;;;;;;;33.45;15.68;;;6.60;99.90;;;;;;5068657;28;20391;-52
2021/11/22 05:10:10;;;;;;;36.30;16.52;;;6.60;99.90;;;;;;5067835;28;20379;-55
2021/11/22 05:12:36;;;;;;;29.42;14.18;;;6.60;99.90;;;;;;5068749;28;20415;-53
2021/11/22 05:15:02;;;;;;;30.30;13.75;;;6.70;99.90;;;;;;5068666;28;20429;-53
2021/11/22 05:17:28;;;;;;;31.58;14.05;;;6.70;99.90;;;;;;5067756;28;20375;-53
2021/11/22 05:19:54;;;;;;;33.60;15.20;;;6.70;99.90;;;;;;5068523;28;20380;-53
2021/11/22 05:22:21;;;;;;;28.92;13.77;;;6.60;99.90;;;;;;5068210;28;20407;-52
2021/11/22 05:24:49;;;;;;;31.85;14.90;;;6.60;99.90;;;;;;5087774;28;20386;-53
2021/11/22 05:27:26;;;;;;;41.70;18.33;;;6.70;99.90;;;;;;5084990;28;20429;-53
2021/11/22 05:29:52;;;;;;;39.88;17.15;;;6.60;99.90;;;;;;5087552;28;20429;-53
2021/11/22 05:32:19;;;;;;;38.53;16.45;;;6.50;99.90;;;;;;5087471;28;20422;-53
2021/11/22 05:34:47;;;;;;;29.20;13.80;;;6.50;99.90;;;;;;5087063;28;20404;-53
2021/11/22 05:37:14;;;;;;;30.25;13.68;;;6.50;99.90;;;;;;5087407;28;20847;-53
2021/11/22 05:39:40;;;;;;;31.85;15.20;;;6.50;99.90;;;;;;5069982;28;20410;-53
2021/11/22 05:42:05;;;;;;;31.65;13.45;;;6.50;99.90;;;;;;5088074;28;20932;-53
2021/11/22 05:44:35;;;;;;;27.90;12.50;;;6.70;99.90;;;;;;5086172;28;20378;-53
2021/11/22 05:47:07;;;;;;;26.97;12.10;;;6.70;99.90;;;;;;5088112;28;20431;-53
2021/11/22 05:49:35;;;;;;;22.35;11.32;;;6.70;99.90;;;;;;5084129;28;20413;-53
2021/11/22 05:52:02;;;;;;;23.05;12.43;;;6.70;99.90;;;;;;5085032;28;20383;-53
2021/11/22 05:54:31;;;;;;;26.95;11.30;;;6.50;99.90;;;;;;5082258;28;20568;-54
2021/11/22 05:56:57;;;;;;;27.83;11.95;;;6.40;99.90;;;;;;5085700;28;20492;-52
2021/11/22 05:59:23;;;;;;;24.27;11.13;;;6.40;99.90;;;;;;5084897;28;20944;-53
2021/11/22 06:01:50;;;;;;;25.00;12.00;;;6.50;99.90;;;;;;5090430;28;20469;-53
2021/11/22 06:04:15;;;;;;;24.50;11.55;;;6.50;99.90;;;;;;5087211;28;20382;-53
2021/11/22 06:06:41;;;;;;;24.73;11.20;;;6.60;99.90;;;;;;5082688;28;20416;-53
2021/11/22 06:09:07;;;;;;;22.00;11.43;;;7.20;99.90;;;;;;5091610;28;20421;-53
2021/11/22 06:11:32;;;;;;;23.70;10.70;;;6.60;99.90;;;;;;5078045;28;20406;-53
2021/11/22 06:13:58;;;;;;;23.08;11.48;;;6.60;99.90;;;;;;5091609;28;20374;-53
2021/11/22 06:16:24;;;;;;;21.50;10.97;;;6.50;99.90;;;;;;5090624;28;20394;-53
2021/11/22 06:18:50;;;;;;;24.92;11.88;;;6.80;99.90;;;;;;5091564;28;20378;-53
2021/11/22 06:21:17;;;;;;;24.45;11.80;;;6.70;99.90;;;;;;5087883;28;20853;-53
2021/11/22 06:23:43;;;;;;;25.50;12.57;;;6.70;99.90;;;;;;5075398;28;20431;-53
2021/11/22 06:26:08;;;;;;;21.63;10.57;;;6.60;99.90;;;;;;5091511;28;20505;-53
2021/11/22 06:28:34;;;;;;;24.43;11.70;;;6.60;99.90;;;;;;5090542;28;20835;-53
2021/11/22 06:31:00;;;;;;;26.60;12.73;;;6.60;99.90;;;;;;5090902;28;20941;-53
2021/11/22 06:33:25;;;;;;;23.30;12.10;;;6.60;99.90;;;;;;5090239;28;20898;-53
2021/11/22 06:35:51;;;;;;;21.05;10.90;;;6.70;99.90;;;;;;5087507;28;20460;-52
2021/11/22 06:38:18;;;;;;;22.77;10.80;;;6.60;99.90;;;;;;5072872;28;20409;-53
2021/11/22 06:40:44;;;;;;;24.03;11.87;;;6.60;99.90;;;;;;5091263;28;20390;-53
2021/11/22 06:43:11;;;;;;;25.97;12.57;;;6.50;99.90;;;;;;5091630;28;20444;-53
2021/11/22 06:45:37;;;;;;;29.88;14.43;;;6.70;99.90;;;;;;5084245;28;20411;-53
2021/11/22 06:48:03;;;;;;;22.17;11.75;;;6.50;99.90;;;;;;5056720;28;20425;-53
2021/11/22 06:50:29;;;;;;;23.90;12.80;;;6.50;99.90;;;;;;5090282;28;20875;-53
2021/11/22 06:52:55;;;;;;;24.20;11.60;;;6.50;99.90;;;;;;5091175;28;20379;-53
2021/11/22 06:55:21;;;;;;;25.17;11.73;;;6.50;99.90;;;;;;5087392;28;20427;-53
2021/11/22 06:57:47;;;;;;;26.00;12.68;;;6.50;99.90;;;;;;5090870;28;20473;-52
2021/11/22 07:00:14;;;;;;;26.65;11.60;;;6.50;99.90;;;;;;5090853;28;20378;-54
2021/11/22 07:02:40;;;;;;;21.15;11.38;;;6.40;99.90;;;;;;5090912;28;20443;-53
2021/11/22 07:05:07;;;;;;;23.77;12.03;;;6.40;99.90;;;;;;5077998;28;20801;-53
2021/11/22 07:07:33;;;;;;;22.73;11.40;;;6.30;99.90;;;;;;5081513;28;20382;-53
2021/11/22 07:09:59;;;;;;;23.27;11.02;;;6.40;99.90;;;;;;5080656;28;20388;-53
2021/11/22 07:12:24;;;;;;;21.23;12.00;;;6.40;99.90;;;;;;5069100;28;20795;-53
2021/11/22 07:14:50;;;;;;;24.13;11.80;;;6.50;99.90;;;;;;5084089;28;20397;-53
2021/11/22 07:17:16;;;;;;;23.90;11.13;;;6.60;99.90;;;;;;5089931;28;20462;-54
2021/11/22 07:19:43;;;;;;;25.27;11.50;;;6.60;99.90;;;;;;5089591;28;20859;-53
2021/11/22 07:22:09;;;;;;;22.52;11.73;;;6.60;99.90;;;;;;5089695;28;20432;-53
2021/11/22 07:24:39;;;;;;;23.52;11.30;;;6.60;99.90;;;;;;5088577;28;20378;-53
2021/11/22 07:27:06;;;;;;;22.20;11.43;;;6.60;99.90;;;;;;5089802;28;20463;-53
2021/11/22 07:29:32;;;;;;;23.40;11.40;;;6.70;99.90;;;;;;5089204;28;20496;-52
2021/11/22 07:31:58;;;;;;;21.83;11.70;;;6.70;99.90;;;;;;5088272;28;20815;-53
2021/11/22 07:34:24;;;;;;;21.92;10.85;;;6.70;99.90;;;;;;5089363;28;20875;-53
2021/11/22 07:36:50;;;;;;;20.65;10.30;;;6.70;99.90;;;;;;5090123;28;20458;-53
2021/11/22 07:39:16;;;;;;;20.33;10.23;;;6.40;99.90;;;;;;5085059;28;20384;-54
2021/11/22 07:41:42;;;;;;;20.33;10.20;;;6.60;99.90;;;;;;5069645;28;20731;-53
2021/11/22 07:44:07;;;;;;;21.40;11.80;;;6.70;99.90;;;;;;5069719;28;20396;-52
2021/11/22 07:46:34;;;;;;;21.38;10.90;;;6.70;99.90;;;;;;5069187;28;20959;-53
2021/11/22 07:49:00;;;;;;;20.48;10.35;;;6.50;99.90;;;;;;5069491;28;20471;-53
2021/11/22 07:51:26;;;;;;;21.45;10.45;;;6.50;99.90;;;;;;5068858;28;20466;-53
2021/11/22 07:53:51;;;;;;;24.52;11.18;;;5.50;99.90;;;;;;5070091;28;20891;-53
2021/11/22 07:56:17;;;;;;;22.47;11.40;;;6.50;99.90;;;;;;5069172;28;20402;-54
2021/11/22 07:58:43;;;;;;;23.13;11.07;;;6.50;99.90;;;;;;5051671;28;20387;-53
2021/11/22 08:01:09;;;;;;;22.02;11.02;;;6.50;99.90;;;;;;5069966;28;20387;-52
2021/11/22 08:03:35;;;;;;;19.88;10.95;;;6.50;99.90;;;;;;5081486;28;20398;-53
2021/11/22 08:06:01;;;;;;;22.87;11.80;;;6.60;99.90;;;;;;5075542;28;20398;-52
2021/11/22 08:08:29;;;;;;;22.85;11.73;;;6.50;99.90;;;;;;5088772;28;20473;-53
2021/11/22 08:11:28;;;;;;;28.83;12.40;;;6.70;99.90;;;;;;5068898;28;20430;-53
2021/11/22 08:13:50;;;;;;;32.97;11.60;;;6.80;99.90;;;;;;5067814;28;20388;-53
2021/11/22 08:16:17;;;;;;;22.63;11.87;;;6.90;99.90;;;;;;5060368;28;20408;-55
2021/11/22 08:18:43;;;;;;;22.60;12.20;;;6.90;99.90;;;;;;5049098;28;20455;-53
2021/11/22 08:21:11;;;;;;;25.88;12.25;;;6.90;99.90;;;;;;5048574;28;20397;-53
2021/11/22 08:23:37;;;;;;;25.42;12.07;;;6.90;99.90;;;;;;5054056;28;20396;-53
2021/11/22 08:26:04;;;;;;;21.45;11.70;;;6.80;99.90;;;;;;5069228;28;20443;-53
2021/11/22 08:28:30;;;;;;;20.77;12.00;;;6.70;99.90;;;;;;5068082;28;20540;-53
2021/11/22 08:30:55;;;;;;;20.52;11.80;;;6.70;99.90;;;;;;5066089;28;20487;-53
2021/11/22 08:33:21;;;;;;;21.83;11.48;;;6.70;99.90;;;;;;5068444;28;20417;-54
2021/11/22 08:35:48;;;;;;;26.00;11.77;;;6.80;99.90;;;;;;5068643;28;20372;-53
2021/11/22 08:38:14;;;;;;;24.35;12.82;;;6.80;99.90;;;;;;5067950;28;20387;-53
2021/11/22 08:40:41;;;;;;;25.33;12.45;;;6.80;99.90;;;;;;5064703;28;20888;-53
2021/11/22 08:43:09;;;;;;;21.30;11.52;;;6.90;99.90;;;;;;5055325;28;20401;-53
2021/11/22 08:45:36;;;;;;;24.92;12.70;;;7.00;99.90;;;;;;5059441;28;20461;-53
2021/11/22 08:48:02;;;;;;;21.23;11.57;;;7.00;99.90;;;;;;5062122;28;20502;-53
2021/11/22 08:50:27;;;;;;;24.38;11.90;;;7.00;99.90;;;;;;5058067;28;21274;-53
2021/11/22 08:52:53;;;;;;;20.25;11.32;;;7.10;99.90;;;;;;5067813;28;20498;-53
2021/11/22 08:55:20;;;;;;;24.48;12.55;;;7.10;99.90;;;;;;5047555;28;20757;-55
2021/11/22 08:57:47;;;;;;;24.20;11.75;;;7.00;99.90;;;;;;5068142;28;20419;-53
2021/11/22 09:00:18;;;;;;;23.33;12.13;;;7.00;99.90;;;;;;5049591;28;20389;-53
2021/11/22 09:02:44;;;;;;;25.02;12.70;;;7.00;99.90;;;;;;5047985;28;20835;-53
2021/11/22 09:05:10;;;;;;;23.48;12.55;;;7.00;99.90;;;;;;5048335;28;20882;-53
2021/11/22 09:07:36;;;;;;;23.40;12.13;;;7.00;99.90;;;;;;5047637;28;20374;-52
2021/11/22 09:10:03;;;;;;;26.67;12.83;;;7.00;99.90;;;;;;5048421;28;20405;-53
2021/11/22 09:12:29;;;;;;;23.60;12.20;;;7.00;99.90;;;;;;5061653;28;20494;-53
2021/11/22 09:14:54;;;;;;;25.20;12.80;;;7.00;99.90;;;;;;5068577;28;20825;-53
2021/11/22 09:17:20;;;;;;;23.67;11.77;;;7.10;99.90;;;;;;5068096;28;20380;-55
2021/11/22 09:19:46;;;;;;;22.47;12.00;;;7.10;99.90;;;;;;5068053;28;20391;-53
2021/11/22 09:22:12;;;;;;;28.23;15.32;;;7.10;99.90;;;;;;5075494;28;20441;-53
2021/11/22 09:24:39;;;;;;;26.65;13.15;;;7.20;99.90;;;;;;5088314;28;20378;-53
2021/11/22 09:27:06;;;;;;;22.35;11.20;;;7.30;99.90;;;;;;5085695;28;20871;-53
2021/11/22 09:29:32;;;;;;;22.17;12.10;;;7.30;99.90;;;;;;5080427;28;20411;-53
2021/11/22 09:31:58;;;;;;;21.73;11.70;;;7.20;99.90;;;;;;5076953;28;20473;-53
2021/11/22 09:34:23;;;;;;;23.05;11.40;;;7.40;99.90;;;;;;5083358;28;20394;-55
2021/11/22 09:36:49;;;;;;;21.83;11.50;;;7.30;99.90;;;;;;5091812;28;20381;-53
2021/11/22 09:39:17;;;;;;;22.10;11.25;;;7.20;99.90;;;;;;5092304;28;20377;-53
2021/11/22 09:41:46;;;;;;;25.30;12.13;;;7.20;99.90;;;;;;5091906;28;20401;-53
2021/11/22 09:44:11;;;;;;;20.05;11.18;;;7.30;99.90;;;;;;5092163;28;20873;-53
2021/11/22 09:46:37;;;;;;;22.30;11.80;;;7.20;99.90;;;;;;5091434;28;20437;-53
2021/11/22 09:49:04;;;;;;;26.67;11.95;;;7.30;99.90;;;;;;5092409;28;20739;-53
2021/11/22 09:51:30;;;;;;;20.48;10.93;;;7.40;99.90;;;;;;5091099;28;20382;-53
2021/11/22 09:53:57;;;;;;;22.52;11.63;;;7.30;99.90;;;;;;5091891;28;20697;-53
2021/11/22 09:56:24;;;;;;;25.63;12.80;;;7.30;99.90;;;;;;5091863;28;20808;-55
2021/11/22 09:58:49;;;;;;;25.92;12.10;;;7.30;99.90;;;;;;5091994;28;20394;-53
2021/11/22 10:01:16;;;;;;;22.20;11.63;;;7.30;99.90;;;;;;5091957;28;20382;-53
2021/11/22 10:03:57;;;;;;;19.20;10.30;;;7.30;99.90;;;;;;5091155;28;20374;-53
2021/11/22 10:06:22;;;;;;;25.00;10.82;;;7.50;99.90;;;;;;5075651;28;20473;-55
2021/11/22 10:08:48;;;;;;;20.73;11.10;;;7.60;99.90;;;;;;5091095;28;20392;-53
2021/11/22 10:11:16;;;;;;;20.63;11.00;;;7.60;99.90;;;;;;5091708;28;20802;-53
2021/11/22 10:13:45;;;;;;;19.80;9.70;;;7.60;99.90;;;;;;5091324;28;20378;-53
2021/11/22 10:16:17;;;;;;;17.20;8.75;;;7.60;99.90;;;;;;5091656;28;20874;-53
2021/11/22 10:18:44;;;;;;;17.38;9.30;;;7.40;99.90;;;;;;5090574;28;20923;-53
2021/11/22 10:21:21;;;;;;;19.05;9.43;;;7.20;99.90;;;;;;5073548;28;20783;-53
2021/11/22 10:23:48;;;;;;;20.20;10.20;;;7.20;99.90;;;;;;5090738;28;20484;-53
2021/11/22 10:26:15;;;;;;;16.50;8.13;;;7.30;99.90;;;;;;5091480;28;20394;-53
2021/11/22 10:28:48;;;;;;;16.27;8.40;;;7.20;99.90;;;;;;5090499;28;20378;-53
2021/11/22 10:31:18;;;;;;;17.67;8.48;;;7.30;99.90;;;;;;5073477;28;20389;-53
2021/11/22 10:33:47;;;;;;;14.95;7.90;;;7.20;99.90;;;;;;5090436;28;20385;-53
2021/11/22 10:36:16;;;;;;;15.43;7.80;;;7.10;99.90;;;;;;5073040;28;20386;-53
2021/11/22 10:38:49;;;;;;;14.18;7.53;;;7.00;99.90;;;;;;5090641;28;20844;-52
2021/11/22 10:41:24;;;;;;;15.52;7.40;;;7.00;99.90;;;;;;5091511;28;20394;-53
2021/11/22 10:43:54;;;;;;;19.30;8.20;;;7.00;99.90;;;;;;5090843;28;20450;-53
2021/11/22 10:46:25;;;;;;;14.85;7.78;;;7.00;99.90;;;;;;5091344;28;20402;-53
2021/11/22 10:48:52;;;;;;;14.63;7.88;;;6.90;99.90;;;;;;5090822;28;20832;-54
2021/11/22 10:51:26;;;;;;;16.48;7.72;;;6.90;99.90;;;;;;5090697;28;20443;-53
2021/11/22 10:54:06;;;;;;;15.35;7.65;;;7.00;99.90;;;;;;5090257;28;20390;-53
2021/11/22 10:56:41;;;;;;;21.73;7.78;;;7.10;99.90;;;;;;5090190;28;20385;-53
2021/11/22 10:59:13;;;;;;;20.67;8.75;;;7.10;99.90;;;;;;5091006;28;20392;-53
2021/11/22 11:01:41;;;;;;;17.70;8.00;;;7.20;99.90;;;;;;5090538;28;20859;-53
2021/11/22 11:04:15;;;;;;;17.10;7.65;;;7.10;99.90;;;;;;5090766;28;20409;-53
2021/11/22 11:06:48;;;;;;;16.55;7.70;;;7.30;99.90;;;;;;5089869;28;20429;-53
2021/11/22 11:09:18;;;;;;;16.73;7.28;;;7.40;99.90;;;;;;5090505;28;20440;-53
2021/11/22 11:11:44;;;;;;;17.17;6.78;;;7.40;99.90;;;;;;5089658;28;20760;-53
2021/11/22 11:14:14;;;;;;;15.00;7.15;;;7.30;99.90;;;;;;5079295;28;20475;-53
2021/11/22 11:16:41;;;;;;;17.15;7.20;;;7.30;99.90;;;;;;5069581;28;20463;-53
2021/11/22 11:19:09;;;;;;;14.15;6.45;;;7.30;99.90;;;;;;5070132;28;20375;-53
2021/11/22 11:21:45;;;;;;;13.82;6.80;;;7.50;99.90;;;;;;5069523;28;20463;-53
2021/11/22 11:24:11;;;;;;;14.27;6.75;;;7.40;99.90;;;;;;5070304;28;20474;-53
2021/11/22 11:26:39;;;;;;;14.93;6.73;;;7.30;99.90;;;;;;5068963;28;20812;-53
2021/11/22 11:29:05;;;;;;;12.40;6.40;;;7.30;99.90;;;;;;5069917;28;20703;-53
2021/11/22 11:31:34;;;;;;;11.93;6.73;;;7.20;99.90;;;;;;5069420;28;20372;-54
2021/11/22 11:34:03;;;;;;;11.35;5.90;;;7.10;99.90;;;;;;5069651;28;20384;-53
2021/11/22 11:36:41;;;;;;;12.83;6.10;;;7.20;99.90;;;;;;5069544;28;20857;-55
2021/11/22 11:39:24;;;;;;;12.10;5.85;;;7.30;99.90;;;;;;5070194;28;20376;-53
2021/11/22 11:42:05;;;;;;;14.35;6.65;;;7.40;99.90;;;;;;5068850;28;20627;-53
2021/11/22 11:44:43;;;;;;;22.10;8.80;;;7.40;99.90;;;;;;5069037;28;20415;-55
2021/11/22 11:47:24;;;;;;;16.57;8.53;;;7.40;99.90;;;;;;5069676;28;20399;-53
2021/11/22 11:49:50;;;;;;;18.70;9.20;;;7.50;99.90;;;;;;5068861;28;20375;-53
2021/11/22 11:52:28;;;;;;;20.85;8.40;;;7.40;99.90;;;;;;5069528;28;20384;-53
2021/11/22 11:54:55;;;;;;;21.33;8.40;;;7.50;99.90;;;;;;5069057;28;20376;-53
2021/11/22 11:57:26;;;;;;;17.63;7.95;;;7.50;99.90;;;;;;5069002;28;20372;-53
2021/11/22 11:59:52;;;;;;;25.75;8.55;;;7.60;99.90;;;;;;5069062;28;20399;-53
2021/11/22 12:02:24;;;;;;;13.63;6.85;;;7.70;99.90;;;;;;5069403;28;20383;-53
2021/11/22 12:05:00;;;;;;;15.85;6.30;;;7.60;99.90;;;;;;5068603;28;20455;-53
2021/11/22 12:07:43;;;;;;;13.73;6.30;;;7.60;99.90;;;;;;5069750;28;20413;-53
2021/11/22 12:10:23;;;;;;;12.57;5.78;;;7.50;99.90;;;;;;5069379;28;20399;-53
2021/11/22 12:12:52;;;;;;;17.03;6.77;;;7.40;99.90;;;;;;5068604;28;21003;-53
2021/11/22 12:15:29;;;;;;;15.23;5.72;;;7.40;99.90;;;;;;5069284;28;20388;-53
2021/11/22 12:17:54;;;;;;;14.30;6.60;;;7.60;99.90;;;;;;5068778;28;20384;-53
2021/11/22 12:20:24;;;;;;;12.00;5.80;;;7.70;99.90;;;;;;5068894;28;20729;-53
2021/11/22 12:22:52;;;;;;;12.50;5.45;;;7.60;99.90;;;;;;5068409;28;20391;-56
2021/11/22 12:25:36;;;;;;;13.48;5.50;;;7.70;99.90;;;;;;5068747;28;20419;-53
2021/11/22 12:28:02;;;;;;;8.53;4.53;;;7.70;99.90;;;;;;5068397;28;20449;-53
2021/11/22 12:30:28;;;;;;;12.73;5.30;;;7.70;99.90;;;;;;5069027;28;20388;-53
2021/11/22 12:33:14;;;;;;;10.85;5.60;;;7.80;99.90;;;;;;5068172;28;20380;-53
2021/11/22 12:35:40;;;;;;;10.00;5.13;;;7.00;99.90;;;;;;5067942;28;20466;-53
2021/11/22 12:38:27;;;;;;;11.43;5.43;;;7.60;99.90;;;;;;5068905;28;20391;-53
2021/11/22 12:40:56;;;;;;;15.13;5.80;;;7.70;99.90;;;;;;5068128;28;20399;-53